createdAt,value
2023-04-21T00:01:26.441Z,10.25
2023-04-21T00:03:53.518Z,9.68
2023-04-21T00:06:23.119Z,9.23
2023-04-21T00:08:50.599Z,10.55
2023-04-21T00:11:17.666Z,9.05
2023-04-21T00:13:45.044Z,10.00
2023-04-21T00:16:12.399Z,11.07
2023-04-21T00:18:39.369Z,11.93
2023-04-21T00:21:06.463Z,11.82
2023-04-21T00:23:33.481Z,11.35
2023-04-21T00:26:03.160Z,12.25
2023-04-21T00:28:30.302Z,10.10
2023-04-21T00:30:57.400Z,13.88
2023-04-21T00:33:24.491Z,14.85
2023-04-21T00:35:51.607Z,17.37
2023-04-21T00:38:18.489Z,16.95
2023-04-21T00:40:45.560Z,18.83
2023-04-21T00:43:12.431Z,14.93
2023-04-21T00:45:39.350Z,23.05
2023-04-21T00:48:06.570Z,30.35
2023-04-21T00:50:34.061Z,30.52
2023-04-21T00:53:01.088Z,30.05
2023-04-21T00:55:29.197Z,25.98
2023-04-21T00:57:56.820Z,28.65
2023-04-21T01:00:23.873Z,26.83
2023-04-21T01:02:51.243Z,23.87
2023-04-21T01:05:18.560Z,26.55
2023-04-21T01:07:46.060Z,27.33
2023-04-21T01:10:13.014Z,21.35
2023-04-21T01:12:45.110Z,22.62
2023-04-21T01:15:17.585Z,20.40
2023-04-21T01:17:45.584Z,19.65
2023-04-21T01:20:14.710Z,21.58
2023-04-21T01:22:44.776Z,19.00
2023-04-21T01:25:11.768Z,17.87
2023-04-21T01:27:38.722Z,17.40
2023-04-21T01:30:07.681Z,24.60
2023-04-21T01:32:34.667Z,16.83
2023-04-21T01:35:02.040Z,18.25
2023-04-21T01:37:31.581Z,26.08
2023-04-21T01:40:00.707Z,25.42
2023-04-21T01:42:29.655Z,27.08
2023-04-21T01:44:57.173Z,20.57
2023-04-21T01:47:25.694Z,22.20
2023-04-21T01:49:53.319Z,26.02
2023-04-21T01:52:20.738Z,26.90
2023-04-21T01:54:47.934Z,20.02
2023-04-21T01:57:15.593Z,17.20
2023-04-21T01:59:42.634Z,17.90
2023-04-21T02:02:10.295Z,17.30
2023-04-21T02:04:37.543Z,21.50
2023-04-21T02:07:04.531Z,21.58
2023-04-21T02:09:32.327Z,18.52
2023-04-21T02:11:59.289Z,17.87
2023-04-21T02:14:26.502Z,17.37
2023-04-21T02:16:53.614Z,16.87
2023-04-21T02:19:20.893Z,20.75
2023-04-21T02:21:48.106Z,18.62
2023-04-21T02:24:15.030Z,18.23
2023-04-21T02:26:41.929Z,18.15
2023-04-21T02:29:08.867Z,18.40
2023-04-21T02:31:46.119Z,14.70
2023-04-21T02:34:21.638Z,16.00
2023-04-21T02:36:48.820Z,20.75
2023-04-21T02:39:15.677Z,23.60
2023-04-21T02:41:42.603Z,23.20
2023-04-21T02:44:09.544Z,22.80
2023-04-21T02:46:36.470Z,21.67
2023-04-21T02:49:03.483Z,18.65
2023-04-21T02:51:30.382Z,19.67
2023-04-21T02:53:57.653Z,16.90
2023-04-21T02:56:24.579Z,18.87
2023-04-21T02:58:51.463Z,18.55
2023-04-21T03:01:18.538Z,18.17
2023-04-21T03:03:46.391Z,19.12
2023-04-21T03:06:13.310Z,19.30
2023-04-21T03:08:40.332Z,20.77
2023-04-21T03:11:07.159Z,20.33
2023-04-21T03:13:34.087Z,20.75
2023-04-21T03:16:01.166Z,20.98
2023-04-21T03:18:28.438Z,19.65
2023-04-21T03:21:00.354Z,20.62
2023-04-21T03:23:27.233Z,20.75
2023-04-21T03:25:54.217Z,17.65
2023-04-21T03:28:21.169Z,15.80
2023-04-21T03:30:48.092Z,17.40
2023-04-21T03:33:15.069Z,15.75
2023-04-21T03:35:41.981Z,18.87
2023-04-21T03:38:08.943Z,15.70
2023-04-21T03:40:35.861Z,16.55
2023-04-21T03:43:02.823Z,14.05
2023-04-21T03:45:29.713Z,13.48
2023-04-21T03:47:57.193Z,16.65
2023-04-21T03:50:24.252Z,17.75
2023-04-21T03:52:51.173Z,16.92
2023-04-21T03:55:18.151Z,16.48
2023-04-21T03:57:45.126Z,17.60
2023-04-21T04:00:13.100Z,14.30
2023-04-21T04:02:40.908Z,17.42
2023-04-21T04:05:08.725Z,13.13
2023-04-21T04:07:35.886Z,14.77
2023-04-21T04:10:02.923Z,12.63
2023-04-21T04:12:30.092Z,11.00
2023-04-21T04:14:57.028Z,13.80
2023-04-21T04:17:24.016Z,13.73
2023-04-21T04:19:50.983Z,12.07
2023-04-21T04:22:17.876Z,11.70
2023-04-21T04:24:45.363Z,11.35
2023-04-21T04:27:14.378Z,11.00
2023-04-21T04:29:41.499Z,9.17
2023-04-21T04:32:11.324Z,9.13
2023-04-21T04:37:05.391Z,11.38
2023-04-21T04:39:32.692Z,10.95
2023-04-21T04:41:59.982Z,10.32
2023-04-21T04:44:27.027Z,11.55
2023-04-21T04:46:54.492Z,11.23
2023-04-21T04:49:23.581Z,10.68
2023-04-21T04:51:51.198Z,11.40
2023-04-21T04:54:18.595Z,12.60
2023-04-21T04:56:46.280Z,11.90
2023-04-21T04:59:13.271Z,10.57
2023-04-21T05:01:42.155Z,11.30
2023-04-21T05:04:09.492Z,10.40
2023-04-21T05:06:36.620Z,10.27
2023-04-21T05:09:05.179Z,12.68
2023-04-21T05:11:32.281Z,11.80
2023-04-21T05:13:59.607Z,11.65
2023-04-21T05:16:26.705Z,12.68
2023-04-21T05:18:54.327Z,10.43
2023-04-21T05:21:28.949Z,9.60
2023-04-21T05:23:57.470Z,11.35
2023-04-21T05:26:25.997Z,11.23
2023-04-21T05:28:53.385Z,11.80
2023-04-21T05:31:20.439Z,12.07
2023-04-21T05:33:47.383Z,12.50
2023-04-21T05:36:14.391Z,13.25
2023-04-21T05:38:41.296Z,13.52
2023-04-21T05:41:08.711Z,13.45
2023-04-21T05:43:35.742Z,14.90
2023-04-21T05:46:04.199Z,14.75
2023-04-21T05:48:31.272Z,12.57
2023-04-21T05:50:58.298Z,9.27
2023-04-21T05:53:25.372Z,8.38
2023-04-21T05:55:52.422Z,8.48
2023-04-21T05:58:19.422Z,10.82
2023-04-21T06:00:48.954Z,10.88
2023-04-21T06:03:16.505Z,9.20
2023-04-21T06:05:43.676Z,9.82
2023-04-21T06:08:10.618Z,7.30
2023-04-21T06:10:37.795Z,6.95
2023-04-21T06:13:04.740Z,6.50
2023-04-21T06:15:31.732Z,7.45
2023-04-21T06:17:58.853Z,6.80
2023-04-21T06:20:29.087Z,7.10
2023-04-21T06:22:58.445Z,8.07
2023-04-21T06:25:25.481Z,9.02
2023-04-21T06:27:52.708Z,8.75
2023-04-21T06:30:19.685Z,7.12
2023-04-21T06:32:47.999Z,8.38
2023-04-21T06:35:15.533Z,8.05
2023-04-21T06:37:42.535Z,7.00
2023-04-21T06:40:10.017Z,5.93
2023-04-21T06:42:36.988Z,7.53
2023-04-21T06:45:04.260Z,5.45
2023-04-21T06:47:31.291Z,5.57
2023-04-21T06:49:58.248Z,6.00
2023-04-21T06:52:25.241Z,5.35
2023-04-21T06:54:52.338Z,5.90
2023-04-21T06:57:19.438Z,5.47
2023-04-21T06:59:46.398Z,4.95
2023-04-21T07:02:13.331Z,3.47
2023-04-21T07:04:40.419Z,4.18
2023-04-21T07:07:07.497Z,4.15
2023-04-21T07:09:34.528Z,3.40
2023-04-21T07:12:02.950Z,3.87
2023-04-21T07:14:30.207Z,3.92
2023-04-21T07:16:57.654Z,3.70
2023-04-21T07:19:24.670Z,3.58
2023-04-21T07:21:51.678Z,3.45
2023-04-21T07:24:18.715Z,4.05
2023-04-21T07:26:45.783Z,3.92
2023-04-21T07:29:18.914Z,3.67
2023-04-21T07:31:48.498Z,3.58
2023-04-21T07:34:17.624Z,2.83
2023-04-21T07:36:47.223Z,3.35
2023-04-21T07:39:14.283Z,3.00
2023-04-21T07:41:41.247Z,3.97
2023-04-21T07:44:08.259Z,3.60
2023-04-21T07:46:35.332Z,3.92
2023-04-21T07:49:17.985Z,3.12
2023-04-21T07:51:45.300Z,3.50
2023-04-21T07:54:12.975Z,3.72
2023-04-21T07:56:40.413Z,3.50
2023-04-21T07:59:07.557Z,3.53
2023-04-21T08:01:34.888Z,3.87
2023-04-21T08:04:02.066Z,3.53
2023-04-21T08:06:32.238Z,4.10
2023-04-21T08:09:00.021Z,3.70
2023-04-21T08:11:28.798Z,3.62
2023-04-21T08:13:55.804Z,3.60
2023-04-21T08:16:22.903Z,4.05
2023-04-21T08:18:50.023Z,3.58
2023-04-21T08:21:17.023Z,3.05
2023-04-21T08:23:44.049Z,3.47
2023-04-21T08:26:12.590Z,4.20
2023-04-21T08:28:39.930Z,3.72
2023-04-21T08:31:07.020Z,3.50
2023-04-21T08:33:34.114Z,3.78
2023-04-21T08:36:07.500Z,4.80
2023-04-21T08:38:39.722Z,3.37
2023-04-21T08:41:08.669Z,4.10
2023-04-21T08:43:35.650Z,4.03
2023-04-21T08:46:07.281Z,4.90
2023-04-21T08:48:38.638Z,3.75
2023-04-21T08:51:12.595Z,4.18
2023-04-21T08:53:41.919Z,4.22
2023-04-21T08:56:11.627Z,3.60
2023-04-21T08:58:39.187Z,4.85
2023-04-21T09:01:06.530Z,4.47
2023-04-21T09:03:33.769Z,5.15
2023-04-21T09:06:03.455Z,4.12
2023-04-21T09:08:31.301Z,3.80
2023-04-21T09:11:00.098Z,4.32
2023-04-21T09:13:45.274Z,4.87
2023-04-21T09:16:21.781Z,4.05
2023-04-21T09:18:50.364Z,3.30
2023-04-21T09:21:19.311Z,4.97
2023-04-21T09:23:51.114Z,3.58
2023-04-21T09:26:19.802Z,3.70
2023-04-21T09:28:49.051Z,3.93
2023-04-21T09:31:21.780Z,3.25
2023-04-21T09:34:00.440Z,4.00
2023-04-21T09:36:32.286Z,4.32
2023-04-21T09:41:33.656Z,3.80
2023-04-21T09:44:05.110Z,3.80
2023-04-21T09:46:37.164Z,5.20
2023-04-21T09:49:08.804Z,4.07
2023-04-21T09:56:55.113Z,4.60
2023-04-21T09:59:29.644Z,3.92
2023-04-21T10:02:00.298Z,4.15
2023-04-21T10:04:31.820Z,5.18
2023-04-21T10:07:00.815Z,3.95
2023-04-21T10:09:51.329Z,4.30
2023-04-21T10:12:18.661Z,3.33
2023-04-21T10:14:45.811Z,4.78
2023-04-21T10:17:13.089Z,4.82
2023-04-21T10:19:50.161Z,4.40
2023-04-21T10:22:28.060Z,3.95
2023-04-21T10:25:00.537Z,4.18
2023-04-21T10:27:41.419Z,3.70
2023-04-21T10:30:26.780Z,4.03
2023-04-21T10:33:05.069Z,4.05
2023-04-21T10:36:01.327Z,4.10
2023-04-21T10:38:57.962Z,5.47
2023-04-21T10:41:32.767Z,4.22
2023-04-21T10:44:16.607Z,4.55
2023-04-21T10:46:47.268Z,4.12
2023-04-21T10:49:30.884Z,4.10
2023-04-21T10:52:03.673Z,4.25
2023-04-21T10:54:53.969Z,3.58
2023-04-21T10:57:21.387Z,3.70
2023-04-21T10:59:49.851Z,4.00
2023-04-21T11:02:18.882Z,4.18
2023-04-21T11:04:51.085Z,4.32
2023-04-21T11:07:25.908Z,3.80
2023-04-21T11:10:01.778Z,4.47
2023-04-21T11:12:32.853Z,3.67
2023-04-21T11:15:03.293Z,4.70
2023-04-21T11:17:30.871Z,3.67
2023-04-21T11:19:57.804Z,3.80
2023-04-21T11:22:26.631Z,3.55
2023-04-21T11:24:58.091Z,4.78
2023-04-21T11:27:27.761Z,5.00
2023-04-21T11:29:54.729Z,3.85
2023-04-21T11:32:21.890Z,4.37
2023-04-21T11:34:48.903Z,3.97
2023-04-21T11:37:17.627Z,4.50
2023-04-21T11:39:45.052Z,4.33
2023-04-21T11:42:12.396Z,4.25
2023-04-21T11:44:41.613Z,3.72
2023-04-21T11:47:19.165Z,3.47
2023-04-21T11:49:51.780Z,4.20
2023-04-21T11:52:25.402Z,4.43
2023-04-21T11:55:07.578Z,4.40
2023-04-21T11:57:34.786Z,4.32
2023-04-21T12:00:03.599Z,4.57
2023-04-21T12:02:32.763Z,3.67
2023-04-21T12:05:04.870Z,4.00
2023-04-21T12:07:56.417Z,4.55
2023-04-21T12:10:23.537Z,4.25
2023-04-21T12:12:51.552Z,3.17
2023-04-21T12:15:23.460Z,3.20
2023-04-21T12:17:52.520Z,2.70
2023-04-21T12:20:21.279Z,2.90
2023-04-21T12:22:49.356Z,3.85
2023-04-21T12:25:16.541Z,3.70
2023-04-21T12:27:54.411Z,3.55
2023-04-21T12:30:21.842Z,2.60
2023-04-21T12:32:49.404Z,2.50
2023-04-21T12:35:16.486Z,2.97
2023-04-21T12:37:43.474Z,3.28
2023-04-21T12:40:10.924Z,2.80
2023-04-21T12:42:38.470Z,3.47
2023-04-21T12:45:06.978Z,3.37
2023-04-21T12:47:35.354Z,2.87
2023-04-21T12:50:02.605Z,2.42
2023-04-21T12:52:29.624Z,3.75
2023-04-21T12:54:56.537Z,3.15
2023-04-21T12:57:23.637Z,2.97
2023-04-21T12:59:50.647Z,2.30
2023-04-21T13:02:18.118Z,5.15
2023-04-21T13:04:45.343Z,3.20
2023-04-21T13:07:12.904Z,3.37
2023-04-21T13:09:40.357Z,4.28
2023-04-21T13:12:07.909Z,2.60
2023-04-21T13:14:35.182Z,2.53
2023-04-21T13:17:04.157Z,3.20
2023-04-21T13:19:32.024Z,3.12
2023-04-21T13:21:59.771Z,4.00
2023-04-21T13:24:27.232Z,2.50
2023-04-21T13:26:55.260Z,2.90
2023-04-21T13:29:22.336Z,2.95
2023-04-21T13:31:49.568Z,2.83
2023-04-21T13:34:16.984Z,3.05
2023-04-21T13:36:44.065Z,3.10
2023-04-21T13:39:11.516Z,2.78
2023-04-21T13:41:38.786Z,4.12
2023-04-21T13:44:05.970Z,3.20
2023-04-21T13:46:34.020Z,3.05
2023-04-21T13:49:01.374Z,3.25
2023-04-21T13:51:31.278Z,3.08
2023-04-21T13:53:58.820Z,3.22
2023-04-21T13:56:26.144Z,3.60
2023-04-21T13:58:53.843Z,3.78
2023-04-21T14:01:21.790Z,3.37
2023-04-21T14:03:49.431Z,2.67
2023-04-21T14:06:16.804Z,2.72
2023-04-21T14:08:43.809Z,2.53
2023-04-21T14:11:10.810Z,2.70
2023-04-21T14:13:45.464Z,2.83
2023-04-21T14:16:19.316Z,2.90
2023-04-21T14:18:47.482Z,2.83
2023-04-21T14:21:14.511Z,2.75
2023-04-21T14:23:41.516Z,3.15
2023-04-21T14:26:08.593Z,3.28
2023-04-21T14:28:35.899Z,3.50
2023-04-21T14:31:03.016Z,2.75
2023-04-21T14:33:30.315Z,2.95
2023-04-21T14:35:57.316Z,2.95
2023-04-21T14:38:24.703Z,2.92
2023-04-21T14:40:54.752Z,3.37
2023-04-21T14:43:22.068Z,2.67
2023-04-21T14:45:49.214Z,3.65
2023-04-21T14:48:16.732Z,2.90
2023-04-21T14:50:44.188Z,3.15
2023-04-21T14:53:11.494Z,3.33
2023-04-21T14:55:38.422Z,3.22
2023-04-21T14:58:05.375Z,3.45
2023-04-21T15:00:32.966Z,2.72
2023-04-21T15:03:00.171Z,2.60
2023-04-21T15:05:27.304Z,3.08
2023-04-21T15:07:54.294Z,3.85
2023-04-21T15:10:21.301Z,3.40
2023-04-21T15:12:48.409Z,3.30
2023-04-21T15:15:15.347Z,3.45
2023-04-21T15:17:42.323Z,3.65
2023-04-21T15:20:10.461Z,3.47
2023-04-21T15:22:37.834Z,3.50
2023-04-21T15:25:05.186Z,4.12
2023-04-21T15:27:32.116Z,3.47
2023-04-21T15:29:59.088Z,3.92
2023-04-21T15:32:26.566Z,2.95
2023-04-21T15:34:53.644Z,3.37
2023-04-21T15:37:24.248Z,3.70
2023-04-21T15:39:52.532Z,3.75
2023-04-21T15:42:19.580Z,3.90
2023-04-21T15:44:47.204Z,3.42
2023-04-21T15:47:16.690Z,3.45
2023-04-21T15:49:43.706Z,3.30
2023-04-21T15:52:11.344Z,4.15
2023-04-21T15:54:38.840Z,3.58
2023-04-21T15:57:06.467Z,3.50
2023-04-21T15:59:33.438Z,3.30
2023-04-21T16:02:00.551Z,3.05
2023-04-21T16:04:28.058Z,3.25
2023-04-21T16:06:55.180Z,3.50
2023-04-21T16:09:22.716Z,3.83
2023-04-21T16:11:52.572Z,3.78
2023-04-21T16:14:19.700Z,3.42
2023-04-21T16:16:46.860Z,3.83
2023-04-21T16:19:14.029Z,3.95
2023-04-21T16:21:42.267Z,3.28
2023-04-21T16:24:09.374Z,3.62
2023-04-21T16:26:36.978Z,3.60
2023-04-21T16:29:04.161Z,3.30
2023-04-21T16:31:31.862Z,3.62
2023-04-21T16:34:00.466Z,5.22
2023-04-21T16:36:28.695Z,4.00
2023-04-21T16:38:56.348Z,4.47
2023-04-21T16:41:23.819Z,4.55
2023-04-21T16:43:51.016Z,4.32
2023-04-21T16:46:18.474Z,4.32
2023-04-21T16:48:45.710Z,3.80
2023-04-21T16:51:12.833Z,3.22
2023-04-21T16:53:40.447Z,3.80
2023-04-21T16:56:07.761Z,4.43
2023-04-21T16:58:34.806Z,3.67
2023-04-21T17:01:01.889Z,3.75
2023-04-21T17:03:29.505Z,4.55
2023-04-21T17:05:56.559Z,4.60
2023-04-21T17:08:23.533Z,4.35
2023-04-21T17:10:50.681Z,4.22
2023-04-21T17:13:17.655Z,3.60
2023-04-21T17:15:44.614Z,4.53
2023-04-21T17:18:11.729Z,4.32
2023-04-21T17:20:39.065Z,4.60
2023-04-21T17:23:06.291Z,4.72
2023-04-21T17:25:33.330Z,4.20
2023-04-21T17:28:00.313Z,4.10
2023-04-21T17:30:27.278Z,3.60
2023-04-21T17:33:04.228Z,4.00
2023-04-21T17:35:46.054Z,3.80
2023-04-21T17:38:19.352Z,3.60
2023-04-21T17:40:46.268Z,4.43
2023-04-21T17:43:13.431Z,3.35
2023-04-21T17:45:40.646Z,4.57
2023-04-21T17:48:07.709Z,3.50
2023-04-21T17:50:34.668Z,4.18
2023-04-21T17:53:01.718Z,3.95
2023-04-21T17:55:28.738Z,4.03
2023-04-21T17:57:55.709Z,3.70
2023-04-21T18:00:22.629Z,3.90
2023-04-21T18:02:49.533Z,3.47
2023-04-21T18:05:17.349Z,4.37
2023-04-21T18:07:44.521Z,3.62
2023-04-21T18:10:11.617Z,4.03
2023-04-21T18:12:38.562Z,5.03
2023-04-21T18:15:05.959Z,4.95
2023-04-21T18:17:32.904Z,6.85
2023-04-21T18:19:59.822Z,9.27
2023-04-21T18:22:27.028Z,7.32
2023-04-21T18:24:54.202Z,12.35
2023-04-21T18:27:21.311Z,22.42
2023-04-21T18:29:48.250Z,17.52
2023-04-21T18:32:15.195Z,25.33
2023-04-21T18:34:42.325Z,35.08
2023-04-21T18:37:09.386Z,39.28
2023-04-21T18:39:36.537Z,37.25
2023-04-21T18:42:03.728Z,37.75
2023-04-21T18:44:30.799Z,33.78
2023-04-21T18:46:58.563Z,34.17
2023-04-21T18:49:25.545Z,33.13
2023-04-21T18:51:52.541Z,36.22
2023-04-21T18:54:19.403Z,38.45
2023-04-21T18:56:46.854Z,35.85
2023-04-21T18:59:13.925Z,32.75
2023-04-21T19:01:41.877Z,33.88
2023-04-21T19:04:11.857Z,33.95
2023-04-21T19:06:38.872Z,19.00
2023-04-21T19:09:05.819Z,17.75
2023-04-21T19:11:33.673Z,17.35
2023-04-21T19:14:00.670Z,12.68
2023-04-21T19:16:28.599Z,11.88
2023-04-21T19:18:55.641Z,12.05
2023-04-21T19:21:22.652Z,10.70
2023-04-21T19:23:49.629Z,10.00
2023-04-21T19:26:16.709Z,9.48
2023-04-21T19:28:44.133Z,9.18
2023-04-21T19:31:11.284Z,9.93
2023-04-21T19:33:38.272Z,10.15
2023-04-21T19:36:05.861Z,9.63
2023-04-21T19:38:33.754Z,9.38
2023-04-21T19:41:00.730Z,10.55
2023-04-21T19:43:27.671Z,11.65
2023-04-21T19:45:54.726Z,10.50
2023-04-21T19:48:21.867Z,11.68
2023-04-21T19:50:48.819Z,11.35
2023-04-21T19:53:15.933Z,12.50
2023-04-21T19:55:43.824Z,10.30
2023-04-21T19:58:10.805Z,13.85
2023-04-21T20:00:37.976Z,13.18
2023-04-21T20:03:07.216Z,14.48
2023-04-21T20:05:34.338Z,15.48
2023-04-21T20:08:01.497Z,18.55
2023-04-21T20:10:28.448Z,13.82
2023-04-21T20:12:55.354Z,15.13
2023-04-21T20:15:22.822Z,12.10
2023-04-21T20:17:50.243Z,8.98
2023-04-21T20:20:17.784Z,9.55
2023-04-21T20:22:44.898Z,10.30
2023-04-21T20:25:13.079Z,10.88
2023-04-21T20:27:40.283Z,9.23
2023-04-21T20:30:08.215Z,8.27
2023-04-21T20:32:35.331Z,7.85
2023-04-21T20:35:02.449Z,11.05
2023-04-21T20:37:29.890Z,8.88
2023-04-21T20:39:57.394Z,9.32
2023-04-21T20:42:24.355Z,8.25
2023-04-21T20:44:51.376Z,8.48
2023-04-21T20:47:18.405Z,7.70
2023-04-21T20:49:47.538Z,9.50
2023-04-21T20:52:15.468Z,8.27
2023-04-21T20:54:42.488Z,7.80
2023-04-21T20:57:10.488Z,8.70
2023-04-21T20:59:37.593Z,7.82
2023-04-21T21:02:05.219Z,7.47
2023-04-21T21:04:32.351Z,9.00
2023-04-21T21:06:59.814Z,9.57
2023-04-21T21:09:26.776Z,9.38
2023-04-21T21:11:53.866Z,9.23
2023-04-21T21:14:20.755Z,8.05
2023-04-21T21:16:47.770Z,8.18
2023-04-21T21:19:15.076Z,9.48
2023-04-21T21:21:42.110Z,8.88
2023-04-21T21:24:09.060Z,10.80
2023-04-21T21:26:36.024Z,13.25
2023-04-21T21:29:03.321Z,10.95
2023-04-21T21:31:30.256Z,10.90
2023-04-21T21:33:58.412Z,11.38
2023-04-21T21:36:25.556Z,9.55
2023-04-21T21:38:52.461Z,9.93
2023-04-21T21:41:19.908Z,10.32
2023-04-21T21:43:47.069Z,11.95
2023-04-21T21:46:14.058Z,10.02
2023-04-21T21:48:42.742Z,12.23
2023-04-21T21:51:09.704Z,10.75
2023-04-21T21:53:36.636Z,9.13
2023-04-21T21:56:03.637Z,9.20
2023-04-21T21:58:30.992Z,11.15
2023-04-21T22:00:58.229Z,10.75
2023-04-21T22:03:25.826Z,14.43
2023-04-21T22:05:53.012Z,12.88
2023-04-21T22:08:19.963Z,12.13
2023-04-21T22:10:46.945Z,11.23
2023-04-21T22:13:13.892Z,10.32
2023-04-21T22:15:41.492Z,9.18
2023-04-21T22:18:09.982Z,8.73
2023-04-21T22:20:37.122Z,9.65
2023-04-21T22:23:04.346Z,10.80
2023-04-21T22:25:31.453Z,10.20
2023-04-21T22:27:58.409Z,8.45
2023-04-21T22:30:26.072Z,8.33
2023-04-21T22:32:53.014Z,9.50
2023-04-21T22:35:20.192Z,8.63
2023-04-21T22:37:47.083Z,10.18
2023-04-21T22:40:14.163Z,10.80
2023-04-21T22:42:41.212Z,11.10
2023-04-21T22:45:08.683Z,10.50
2023-04-21T22:47:35.914Z,11.00
2023-04-21T22:50:04.574Z,9.73
2023-04-21T22:52:31.579Z,9.23
2023-04-21T22:54:58.560Z,9.52
2023-04-21T22:57:25.943Z,10.13
2023-04-21T22:59:52.981Z,10.23
2023-04-21T23:02:20.014Z,9.30
2023-04-21T23:04:46.983Z,9.07
2023-04-21T23:07:13.926Z,9.30
2023-04-21T23:09:40.971Z,10.27
2023-04-21T23:12:08.549Z,10.88
2023-04-21T23:14:35.578Z,9.68
2023-04-21T23:17:02.566Z,8.80
2023-04-21T23:19:29.702Z,10.32
2023-04-21T23:21:56.733Z,8.13
2023-04-21T23:24:23.589Z,8.70
2023-04-21T23:26:50.746Z,8.25
2023-04-21T23:29:17.858Z,7.72
2023-04-21T23:31:45.138Z,7.47
2023-04-21T23:34:12.125Z,6.40
2023-04-21T23:36:39.013Z,7.07
2023-04-21T23:39:06.435Z,5.97
2023-04-21T23:41:33.506Z,5.78
2023-04-21T23:44:00.521Z,6.35
2023-04-21T23:46:27.554Z,7.87
2023-04-21T23:48:54.733Z,6.80
2023-04-21T23:51:22.248Z,6.40
2023-04-21T23:53:49.358Z,5.72
2023-04-21T23:56:16.585Z,5.32
2023-04-21T23:58:43.563Z,6.07
